Delta Reefer — D6EW9 — position and weather

sailwx.info

Track history (hours):
 
Tides and Currents Weather Stations Pressure Air Temp Water Temp Dewpoint Dewpoint Depression Visibility Wind Speed Wind Dir Waves Ship Positions

Delta Reefer

Last reported at 2017-Sep-17 20:50 UTC. Time now 2017-Sep-22 02:44 UTC.
Position N 04°17' W 002°50'.

Length 90 m; draft 5 m.

Type: Cargo ship. MMSI: 616757000.

Date/timePositionNaut miles runAvg speedWind from/ knotsBaromVisibWave heightAir tempDewpointWater temp
2017-Sep-17 20:50N 04°17' W 002°50'2 4.4
2017-Sep-17 20:29N 04°17' W 002°48'2 4.5
2017-Sep-17 19:57N 04°18' W 002°46'2 4.6
2017-Sep-17 19:30N 04°19' W 002°44'2 4.6
2017-Sep-17 19:00N 04°19' W 002°42'2 4.6
2017-Sep-17 18:29N 04°20' W 002°39'3 4.9
2017-Sep-17 17:59N 04°21' W 002°37'3 5.0
2017-Sep-17 17:29N 04°21' W 002°34'3 5.1
2017-Sep-17 16:59N 04°22' W 002°32'2 5.2
2017-Sep-17 16:30N 04°23' W 002°29'3 5.3
2017-Sep-17 16:00N 04°23' W 002°27'3 5.4
2017-Sep-17 15:30N 04°24' W 002°24'3 5.5
2017-Sep-17 15:00N 04°25' W 002°22'3 5.5
2017-Sep-17 14:29N 04°25' W 002°19'3 5.6
2017-Sep-17 13:59N 04°26' W 002°16'3 5.4
2017-Sep-17 13:30N 04°26' W 002°13'3 5.3
2017-Sep-17 13:00N 04°27' W 002°11'3 5.1
2017-Sep-17 12:30N 04°28' W 002°09'3 5.4
2017-Sep-17 11:59N 04°29' W 002°06'3 5.4
2017-Sep-17 11:30N 04°30' W 002°04'4 5.4
2017-Sep-17 10:46N 04°31' W 001°60'118 5.2
2017-Sep-16 12:05N 05°19' W 000°11'0 5.0
2017-Sep-16 12:00N 05°19' W 000°11'3 5.1
2017-Sep-16 11:30N 05°21' W 000°09'3 5.0
2017-Sep-16 11:00N 05°22' W 000°07'3 5.0
2017-Sep-16 10:30N 05°24' W 000°05'2 4.9
2017-Sep-16 10:00N 05°26' W 000°03'2 5.0
2017-Sep-16 09:30N 05°27' W 000°01'2 4.7
2017-Sep-16 09:00N 05°29' E 000°00'2 4.8
2017-Sep-16 08:30N 05°31' E 000°01'2 4.7
2017-Sep-16 08:00N 05°34' E 000°02'2 4.7
2017-Sep-16 07:30N 05°36' E 000°03'2 4.7
2017-Sep-16 07:00N 05°38' E 000°02'1 1.4
2017-Sep-16 06:28N 05°38' E 000°01'0 0.0
2017-Sep-16 05:58N 05°38' E 000°01'0 0.0
2017-Sep-16 05:31N 05°38' E 000°01'0 0.0
2017-Sep-16 05:01N 05°38' E 000°01'0 0.0
2017-Sep-16 04:30N 05°38' E 000°01'0 0.0
2017-Sep-16 03:54N 05°38' E 000°01'0 0.0
2017-Sep-16 03:30N 05°38' E 000°01'0 0.0
2017-Sep-16 03:00N 05°38' E 000°01'0 0.0
2017-Sep-16 02:30N 05°38' E 000°01'0 0.0
2017-Sep-16 02:00N 05°38' E 000°01'0 0.0
2017-Sep-16 01:30N 05°38' E 000°01'0 0.0
2017-Sep-16 01:00N 05°38' E 000°01'0 0.0
2017-Sep-16 00:30N 05°38' E 000°01'0 0.0
2017-Sep-16 00:00N 05°38' E 000°01'0 0.0
2017-Sep-15 23:30N 05°38' E 000°01'0 0.0
2017-Sep-15 23:00N 05°38' E 000°01'0 0.0
2017-Sep-15 22:30N 05°38' E 000°01'0 0.0
2017-Sep-15 22:00N 05°38' E 000°01'0 0.0
2017-Sep-15 21:30N 05°38' E 000°01'0 0.0
2017-Sep-15 21:00N 05°38' E 000°01'0 0.0
2017-Sep-15 20:30N 05°38' E 000°01'0 0.0
2017-Sep-15 20:00N 05°38' E 000°01'0 0.0
2017-Sep-15 19:30N 05°38' E 000°01'0 0.0
2017-Sep-15 19:00N 05°38' E 000°01'0 0.0
2017-Sep-15 18:30N 05°38' E 000°01'0 0.0
2017-Sep-15 18:00N 05°38' E 000°01'0 0.0
2017-Sep-15 17:30N 05°38' E 000°01'0 0.0
2017-Sep-15 17:00N 05°38' E 000°01'0 0.0
2017-Sep-15 16:30N 05°38' E 000°01'0 0.0
2017-Sep-15 16:00N 05°38' E 000°01'0 0.0
2017-Sep-15 15:30N 05°38' E 000°01'0 0.0
2017-Sep-15 15:00N 05°38' E 000°01'0 0.0
2017-Sep-15 14:30N 05°38' E 000°01'0 0.0
2017-Sep-15 14:00N 05°38' E 000°01'0 0.0
2017-Sep-15 13:30N 05°38' E 000°01'0 0.0
2017-Sep-15 13:00N 05°38' E 000°01'0 0.0
2017-Sep-15 12:30N 05°38' E 000°01'0 0.0
2017-Sep-15 12:00N 05°38' E 000°01'0 0.0
2017-Sep-15 11:27N 05°38' E 000°01'0 0.0
2017-Sep-15 11:00N 05°38' E 000°01'0 0.0
2017-Sep-15 10:30N 05°38' E 000°01'0 0.0
2017-Sep-15 10:00N 05°38' E 000°01'0 0.0
2017-Sep-15 09:30N 05°38' E 000°01'0 0.0
2017-Sep-15 08:54N 05°38' E 000°01'0 0.0
2017-Sep-15 08:30N 05°38' E 000°01'0 0.0
2017-Sep-15 08:00N 05°38' E 000°01'0 0.0
2017-Sep-15 07:30N 05°38' E 000°01'0 0.0
2017-Sep-15 07:00N 05°38' E 000°01'0 0.0
2017-Sep-15 06:30N 05°38' E 000°01'0 0.0
2017-Sep-15 06:00N 05°38' E 000°01'0 0.0
2017-Sep-15 05:27N 05°38' E 000°01'0 0.0
2017-Sep-15 05:00N 05°38' E 000°01'0 0.0
2017-Sep-15 04:30N 05°38' E 000°01'0 0.0
2017-Sep-15 04:00N 05°38' E 000°01'0 0.0
2017-Sep-15 03:30N 05°38' E 000°01'0 0.0
2017-Sep-15 03:00N 05°38' E 000°01'0 0.0
2017-Sep-15 02:30N 05°38' E 000°01'0 0.0
2017-Sep-15 02:00N 05°38' E 000°01'0 0.0
2017-Sep-15 01:30N 05°38' E 000°01'0 0.0
2017-Sep-15 01:00N 05°38' E 000°01'0 0.0
2017-Sep-15 00:30N 05°38' E 000°01'0 0.0
2017-Sep-15 00:00N 05°38' E 000°01'0 0.0
2017-Sep-14 23:30N 05°38' E 000°01'0 0.0
2017-Sep-14 23:00N 05°38' E 000°01'0 0.0
2017-Sep-14 22:30N 05°38' E 000°01'0 0.0
2017-Sep-14 22:00N 05°38' E 000°01'0 0.0
2017-Sep-14 21:30N 05°38' E 000°01'0 0.0
2017-Sep-14 21:00N 05°38' E 000°01'0 0.0
2017-Sep-14 20:30N 05°38' E 000°01'0 0.0
2017-Sep-14 20:00N 05°38' E 000°01'0 0.0
2017-Sep-14 19:27N 05°38' E 000°01'0 0.0
2017-Sep-14 18:59N 05°38' E 000°01'0 0.0
2017-Sep-14 18:29N 05°38' E 000°01'0 0.0
2017-Sep-14 17:59N 05°38' E 000°01'0 0.0
2017-Sep-14 17:23N 05°38' E 000°01'0 0.0
2017-Sep-14 16:59N 05°38' E 000°01'0 0.0
2017-Sep-14 16:29N 05°38' E 000°01'0 0.0
2017-Sep-14 15:59N 05°38' E 000°01'0 0.0
2017-Sep-14 15:29N 05°38' E 000°01'0 0.0
2017-Sep-14 14:59N 05°38' E 000°01'0 0.0
2017-Sep-14 14:29N 05°38' E 000°01'0 0.0
2017-Sep-14 13:59N 05°38' E 000°01'0 0.0
2017-Sep-14 13:29N 05°38' E 000°01'0 0.0
2017-Sep-14 12:59N 05°38' E 000°01'0 0.0
2017-Sep-14 12:29N 05°38' E 000°01'0 0.0
2017-Sep-14 11:59N 05°38' E 000°01'0 0.0
2017-Sep-14 11:29N 05°38' E 000°01'0 0.0
2017-Sep-14 10:59N 05°38' E 000°01'0 0.0
2017-Sep-14 10:29N 05°38' E 000°01'0 0.0
2017-Sep-14 09:59N 05°38' E 000°01'0 0.0
2017-Sep-14 09:29N 05°38' E 000°01'0 0.0
2017-Sep-14 08:59N 05°38' E 000°01'0 0.3
2017-Sep-14 08:29N 05°38' E 000°01'1 2.5
2017-Sep-14 08:01N 05°38' E 000°02'0 0.9
2017-Sep-14 07:28N 05°38' E 000°03'1 1.1
2017-Sep-14 06:59N 05°37' E 000°03'1 2.5
2017-Sep-14 06:29N 05°36' E 000°02'0 0.0
2017-Sep-14 05:56N 05°36' E 000°02'0 0.0
2017-Sep-14 05:29N 05°36' E 000°02'0 0.0
2017-Sep-14 04:59N 05°36' E 000°02'0 0.0
2017-Sep-14 04:29N 05°36' E 000°02'0 0.0
2017-Sep-14 03:59N 05°36' E 000°02'0 0.0
2017-Sep-14 03:23N 05°36' E 000°02'0 0.0
2017-Sep-14 02:59N 05°36' E 000°02'0 0.0
2017-Sep-14 02:29N 05°36' E 000°02'0 0.0
2017-Sep-14 01:59N 05°36' E 000°02'0 0.0
2017-Sep-14 01:29N 05°36' E 000°02'0 0.0
2017-Sep-14 00:59N 05°36' E 000°02'0 0.0
2017-Sep-14 00:29N 05°36' E 000°02'0 0.0
2017-Sep-13 23:59N 05°36' E 000°02'0 0.0
2017-Sep-13 23:29N 05°36' E 000°02'0 0.0
2017-Sep-13 22:59N 05°36' E 000°02'0 0.0
2017-Sep-13 22:29N 05°36' E 000°02'0 0.0
2017-Sep-13 21:59N 05°36' E 000°02'0 0.0
2017-Sep-13 21:26N 05°36' E 000°02'0 0.0
2017-Sep-13 20:59N 05°36' E 000°02'0 0.0
2017-Sep-13 20:29N 05°36' E 000°02'0 0.0
2017-Sep-13 19:59N 05°36' E 000°02'0 0.0
2017-Sep-13 19:29N 05°36' E 000°02'0 0.0
2017-Sep-13 18:50N 05°36' E 000°02'0 0.0
2017-Sep-13 18:29N 05°36' E 000°02'0 0.0
2017-Sep-13 17:59N 05°36' E 000°02'0 0.0
2017-Sep-13 17:29N 05°36' E 000°02'0 0.0
2017-Sep-13 16:59N 05°36' E 000°02'0 0.0
2017-Sep-13 16:29N 05°36' E 000°02'0 0.1
2017-Sep-13 15:59N 05°36' E 000°02'1 2.1
2017-Sep-13 15:30N 05°37' E 000°03'0 0.0
2017-Sep-13 15:00N 05°37' E 000°03'3 5.6
2017-Sep-13 14:30N 05°34' E 000°04'3 6.4
2017-Sep-13 14:00N 05°31' E 000°05'3 6.2
2017-Sep-13 13:30N 05°28' E 000°06'3 6.3
2017-Sep-13 13:00N 05°26' E 000°08'3 6.4
2017-Sep-13 12:30N 05°23' E 000°10'3 6.5
2017-Sep-13 12:00N 05°20' E 000°11'3 6.3
2017-Sep-13 11:30N 05°17' E 000°12'4 6.3
2017-Sep-13 10:51N 05°13' E 000°14'  
Track history (hours):
 
Tides and Currents Weather Stations Pressure Air Temp Water Temp Dewpoint Dewpoint Depression Visibility Wind Speed Wind Dir Waves Ship Positions

Delta Reefer

Last reported at 2017-Sep-17 20:50 UTC. Time now 2017-Sep-22 02:44 UTC.
Position N 04°17' W 002°50'.

Length 90 m; draft 5 m.

Type: Cargo ship. MMSI: 616757000.

Date/timePositionNaut miles runAvg speedWind from/ knotsBaromVisibWave heightAir tempDewpointWater temp
2017-Sep-17 20:50N 04°17' W 002°50'2 4.4
2017-Sep-17 20:29N 04°17' W 002°48'2 4.5
2017-Sep-17 19:57N 04°18' W 002°46'2 4.6
2017-Sep-17 19:30N 04°19' W 002°44'2 4.6
2017-Sep-17 19:00N 04°19' W 002°42'2 4.6
2017-Sep-17 18:29N 04°20' W 002°39'3 4.9
2017-Sep-17 17:59N 04°21' W 002°37'3 5.0
2017-Sep-17 17:29N 04°21' W 002°34'3 5.1
2017-Sep-17 16:59N 04°22' W 002°32'2 5.2
2017-Sep-17 16:30N 04°23' W 002°29'3 5.3
2017-Sep-17 16:00N 04°23' W 002°27'3 5.4
2017-Sep-17 15:30N 04°24' W 002°24'3 5.5
2017-Sep-17 15:00N 04°25' W 002°22'3 5.5
2017-Sep-17 14:29N 04°25' W 002°19'3 5.6
2017-Sep-17 13:59N 04°26' W 002°16'3 5.4
2017-Sep-17 13:30N 04°26' W 002°13'3 5.3
2017-Sep-17 13:00N 04°27' W 002°11'3 5.1
2017-Sep-17 12:30N 04°28' W 002°09'3 5.4
2017-Sep-17 11:59N 04°29' W 002°06'3 5.4
2017-Sep-17 11:30N 04°30' W 002°04'4 5.4
2017-Sep-17 10:46N 04°31' W 001°60'118 5.2
2017-Sep-16 12:05N 05°19' W 000°11'0 5.0
2017-Sep-16 12:00N 05°19' W 000°11'3 5.1
2017-Sep-16 11:30N 05°21' W 000°09'3 5.0
2017-Sep-16 11:00N 05°22' W 000°07'3 5.0
2017-Sep-16 10:30N 05°24' W 000°05'2 4.9
2017-Sep-16 10:00N 05°26' W 000°03'2 5.0
2017-Sep-16 09:30N 05°27' W 000°01'2 4.7
2017-Sep-16 09:00N 05°29' E 000°00'2 4.8
2017-Sep-16 08:30N 05°31' E 000°01'2 4.7
2017-Sep-16 08:00N 05°34' E 000°02'2 4.7
2017-Sep-16 07:30N 05°36' E 000°03'2 4.7
2017-Sep-16 07:00N 05°38' E 000°02'1 1.4
2017-Sep-16 06:28N 05°38' E 000°01'0 0.0
2017-Sep-16 05:58N 05°38' E 000°01'0 0.0
2017-Sep-16 05:31N 05°38' E 000°01'0 0.0
2017-Sep-16 05:01N 05°38' E 000°01'0 0.0
2017-Sep-16 04:30N 05°38' E 000°01'0 0.0
2017-Sep-16 03:54N 05°38' E 000°01'0 0.0
2017-Sep-16 03:30N 05°38' E 000°01'0 0.0
2017-Sep-16 03:00N 05°38' E 000°01'0 0.0
2017-Sep-16 02:30N 05°38' E 000°01'0 0.0
2017-Sep-16 02:00N 05°38' E 000°01'0 0.0
2017-Sep-16 01:30N 05°38' E 000°01'0 0.0
2017-Sep-16 01:00N 05°38' E 000°01'0 0.0
2017-Sep-16 00:30N 05°38' E 000°01'0 0.0
2017-Sep-16 00:00N 05°38' E 000°01'0 0.0
2017-Sep-15 23:30N 05°38' E 000°01'0 0.0
2017-Sep-15 23:00N 05°38' E 000°01'0 0.0
2017-Sep-15 22:30N 05°38' E 000°01'0 0.0
2017-Sep-15 22:00N 05°38' E 000°01'0 0.0
2017-Sep-15 21:30N 05°38' E 000°01'0 0.0
2017-Sep-15 21:00N 05°38' E 000°01'0 0.0
2017-Sep-15 20:30N 05°38' E 000°01'0 0.0
2017-Sep-15 20:00N 05°38' E 000°01'0 0.0
2017-Sep-15 19:30N 05°38' E 000°01'0 0.0
2017-Sep-15 19:00N 05°38' E 000°01'0 0.0
2017-Sep-15 18:30N 05°38' E 000°01'0 0.0
2017-Sep-15 18:00N 05°38' E 000°01'0 0.0
2017-Sep-15 17:30N 05°38' E 000°01'0 0.0
2017-Sep-15 17:00N 05°38' E 000°01'0 0.0
2017-Sep-15 16:30N 05°38' E 000°01'0 0.0
2017-Sep-15 16:00N 05°38' E 000°01'0 0.0
2017-Sep-15 15:30N 05°38' E 000°01'0 0.0
2017-Sep-15 15:00N 05°38' E 000°01'0 0.0
2017-Sep-15 14:30N 05°38' E 000°01'0 0.0
2017-Sep-15 14:00N 05°38' E 000°01'0 0.0
2017-Sep-15 13:30N 05°38' E 000°01'0 0.0
2017-Sep-15 13:00N 05°38' E 000°01'0 0.0
2017-Sep-15 12:30N 05°38' E 000°01'0 0.0
2017-Sep-15 12:00N 05°38' E 000°01'0 0.0
2017-Sep-15 11:27N 05°38' E 000°01'0 0.0
2017-Sep-15 11:00N 05°38' E 000°01'0 0.0
2017-Sep-15 10:30N 05°38' E 000°01'0 0.0
2017-Sep-15 10:00N 05°38' E 000°01'0 0.0
2017-Sep-15 09:30N 05°38' E 000°01'0 0.0
2017-Sep-15 08:54N 05°38' E 000°01'0 0.0
2017-Sep-15 08:30N 05°38' E 000°01'0 0.0
2017-Sep-15 08:00N 05°38' E 000°01'0 0.0
2017-Sep-15 07:30N 05°38' E 000°01'0 0.0
2017-Sep-15 07:00N 05°38' E 000°01'0 0.0
2017-Sep-15 06:30N 05°38' E 000°01'0 0.0
2017-Sep-15 06:00N 05°38' E 000°01'0 0.0
2017-Sep-15 05:27N 05°38' E 000°01'0 0.0
2017-Sep-15 05:00N 05°38' E 000°01'0 0.0
2017-Sep-15 04:30N 05°38' E 000°01'0 0.0
2017-Sep-15 04:00N 05°38' E 000°01'0 0.0
2017-Sep-15 03:30N 05°38' E 000°01'0 0.0
2017-Sep-15 03:00N 05°38' E 000°01'0 0.0
2017-Sep-15 02:30N 05°38' E 000°01'0 0.0
2017-Sep-15 02:00N 05°38' E 000°01'0 0.0
2017-Sep-15 01:30N 05°38' E 000°01'0 0.0
2017-Sep-15 01:00N 05°38' E 000°01'0 0.0
2017-Sep-15 00:30N 05°38' E 000°01'0 0.0
2017-Sep-15 00:00N 05°38' E 000°01'0 0.0
2017-Sep-14 23:30N 05°38' E 000°01'0 0.0
2017-Sep-14 23:00N 05°38' E 000°01'0 0.0
2017-Sep-14 22:30N 05°38' E 000°01'0 0.0
2017-Sep-14 22:00N 05°38' E 000°01'0 0.0
2017-Sep-14 21:30N 05°38' E 000°01'0 0.0
2017-Sep-14 21:00N 05°38' E 000°01'0 0.0
2017-Sep-14 20:30N 05°38' E 000°01'0 0.0
2017-Sep-14 20:00N 05°38' E 000°01'0 0.0
2017-Sep-14 19:27N 05°38' E 000°01'0 0.0
2017-Sep-14 18:59N 05°38' E 000°01'0 0.0
2017-Sep-14 18:29N 05°38' E 000°01'0 0.0
2017-Sep-14 17:59N 05°38' E 000°01'0 0.0
2017-Sep-14 17:23N 05°38' E 000°01'0 0.0
2017-Sep-14 16:59N 05°38' E 000°01'0 0.0
2017-Sep-14 16:29N 05°38' E 000°01'0 0.0
2017-Sep-14 15:59N 05°38' E 000°01'0 0.0
2017-Sep-14 15:29N 05°38' E 000°01'0 0.0
2017-Sep-14 14:59N 05°38' E 000°01'0 0.0
2017-Sep-14 14:29N 05°38' E 000°01'0 0.0
2017-Sep-14 13:59N 05°38' E 000°01'0 0.0
2017-Sep-14 13:29N 05°38' E 000°01'0 0.0
2017-Sep-14 12:59N 05°38' E 000°01'0 0.0
2017-Sep-14 12:29N 05°38' E 000°01'0 0.0
2017-Sep-14 11:59N 05°38' E 000°01'0 0.0
2017-Sep-14 11:29N 05°38' E 000°01'0 0.0
2017-Sep-14 10:59N 05°38' E 000°01'0 0.0
2017-Sep-14 10:29N 05°38' E 000°01'0 0.0
2017-Sep-14 09:59N 05°38' E 000°01'0 0.0
2017-Sep-14 09:29N 05°38' E 000°01'0 0.0
2017-Sep-14 08:59N 05°38' E 000°01'0 0.3
2017-Sep-14 08:29N 05°38' E 000°01'1 2.5
2017-Sep-14 08:01N 05°38' E 000°02'0 0.9
2017-Sep-14 07:28N 05°38' E 000°03'1 1.1
2017-Sep-14 06:59N 05°37' E 000°03'1 2.5
2017-Sep-14 06:29N 05°36' E 000°02'0 0.0
2017-Sep-14 05:56N 05°36' E 000°02'0 0.0
2017-Sep-14 05:29N 05°36' E 000°02'0 0.0
2017-Sep-14 04:59N 05°36' E 000°02'0 0.0
2017-Sep-14 04:29N 05°36' E 000°02'0 0.0
2017-Sep-14 03:59N 05°36' E 000°02'0 0.0
2017-Sep-14 03:23N 05°36' E 000°02'0 0.0
2017-Sep-14 02:59N 05°36' E 000°02'0 0.0
2017-Sep-14 02:29N 05°36' E 000°02'0 0.0
2017-Sep-14 01:59N 05°36' E 000°02'0 0.0
2017-Sep-14 01:29N 05°36' E 000°02'0 0.0
2017-Sep-14 00:59N 05°36' E 000°02'0 0.0
2017-Sep-14 00:29N 05°36' E 000°02'0 0.0
2017-Sep-13 23:59N 05°36' E 000°02'0 0.0
2017-Sep-13 23:29N 05°36' E 000°02'0 0.0
2017-Sep-13 22:59N 05°36' E 000°02'0 0.0
2017-Sep-13 22:29N 05°36' E 000°02'0 0.0
2017-Sep-13 21:59N 05°36' E 000°02'0 0.0
2017-Sep-13 21:26N 05°36' E 000°02'0 0.0
2017-Sep-13 20:59N 05°36' E 000°02'0 0.0
2017-Sep-13 20:29N 05°36' E 000°02'0 0.0
2017-Sep-13 19:59N 05°36' E 000°02'0 0.0
2017-Sep-13 19:29N 05°36' E 000°02'0 0.0
2017-Sep-13 18:50N 05°36' E 000°02'0 0.0
2017-Sep-13 18:29N 05°36' E 000°02'0 0.0
2017-Sep-13 17:59N 05°36' E 000°02'0 0.0
2017-Sep-13 17:29N 05°36' E 000°02'0 0.0
2017-Sep-13 16:59N 05°36' E 000°02'0 0.0
2017-Sep-13 16:29N 05°36' E 000°02'0 0.1
2017-Sep-13 15:59N 05°36' E 000°02'1 2.1
2017-Sep-13 15:30N 05°37' E 000°03'0 0.0
2017-Sep-13 15:00N 05°37' E 000°03'3 5.6
2017-Sep-13 14:30N 05°34' E 000°04'3 6.4
2017-Sep-13 14:00N 05°31' E 000°05'3 6.2
2017-Sep-13 13:30N 05°28' E 000°06'3 6.3
2017-Sep-13 13:00N 05°26' E 000°08'3 6.4
2017-Sep-13 12:30N 05°23' E 000°10'3 6.5
2017-Sep-13 12:00N 05°20' E 000°11'3 6.3
2017-Sep-13 11:30N 05°17' E 000°12'4 6.3
2017-Sep-13 10:51N 05°13' E 000°14'  

Dump ship's entire track history